createdAt,value
2017-07-25T00:01:54.946Z,24.90
2017-07-25T00:04:21.971Z,25.10
2017-07-25T00:06:49.767Z,25.30
2017-07-25T00:09:16.802Z,25.30
2017-07-25T00:11:43.846Z,24.80
2017-07-25T00:14:10.889Z,25.10
2017-07-25T00:16:38.692Z,25.40
2017-07-25T00:19:05.732Z,25.40
2017-07-25T00:21:32.765Z,25.50
2017-07-25T00:23:59.828Z,25.50
2017-07-25T00:26:26.865Z,25.20
2017-07-25T00:28:53.897Z,25.10
2017-07-25T00:31:21.705Z,26.00
2017-07-25T00:33:48.737Z,26.00
2017-07-25T00:36:15.769Z,26.10
2017-07-25T00:38:42.817Z,26.20
2017-07-25T00:41:09.854Z,26.10
2017-07-25T00:43:37.647Z,26.20
2017-07-25T00:46:04.697Z,26.20
2017-07-25T00:48:31.720Z,26.00
2017-07-25T00:50:59.515Z,26.00
2017-07-25T00:53:26.607Z,26.00
2017-07-25T00:55:53.637Z,25.70
2017-07-25T00:58:20.673Z,25.80
2017-07-25T01:00:47.721Z,25.60
2017-07-25T01:03:14.747Z,25.40
2017-07-25T01:05:41.776Z,25.50
2017-07-25T01:08:08.828Z,25.40
2017-07-25T01:10:35.865Z,25.20
2017-07-25T01:13:03.665Z,25.10
2017-07-25T01:15:30.712Z,25.10
2017-07-25T01:17:57.736Z,25.10
2017-07-25T01:20:25.543Z,25.80
2017-07-25T01:22:52.585Z,25.80
2017-07-25T01:25:19.619Z,25.80
2017-07-25T01:27:46.652Z,25.70
2017-07-25T01:30:13.697Z,25.80
2017-07-25T01:32:41.498Z,25.70
2017-07-25T01:35:08.532Z,25.60
2017-07-25T01:37:35.582Z,25.30
2017-07-25T01:40:02.639Z,25.60
2017-07-25T01:42:29.672Z,25.80
2017-07-25T01:44:56.916Z,25.80
2017-07-25T01:47:23.957Z,25.80
2017-07-25T01:49:51.777Z,25.70
2017-07-25T01:52:18.825Z,25.70
2017-07-25T01:54:45.862Z,25.80
2017-07-25T01:57:12.890Z,25.70
2017-07-25T01:59:39.991Z,25.80
2017-07-25T02:02:07.016Z,25.80
2017-07-25T02:04:34.061Z,25.80
2017-07-25T02:07:01.117Z,25.60
2017-07-25T02:09:28.157Z,24.90
2017-07-25T02:11:55.187Z,24.90
2017-07-25T02:14:22.230Z,25.20
2017-07-25T02:16:49.256Z,25.30
2017-07-25T02:19:17.058Z,24.30
2017-07-25T02:21:44.398Z,24.30
2017-07-25T02:24:11.428Z,24.50
2017-07-25T02:26:39.233Z,24.80
2017-07-25T02:29:06.282Z,24.80
2017-07-25T02:31:33.306Z,25.30
2017-07-25T02:34:00.347Z,25.50
2017-07-25T02:36:27.393Z,25.50
2017-07-25T02:38:54.426Z,24.70
2017-07-25T02:41:22.230Z,24.60
2017-07-25T02:43:49.282Z,24.50
2017-07-25T02:46:16.317Z,24.80
2017-07-25T02:48:43.352Z,24.50
2017-07-25T02:51:10.418Z,24.60
2017-07-25T02:53:37.458Z,24.80
2017-07-25T02:56:04.500Z,25.10
2017-07-25T02:58:31.548Z,25.20
2017-07-25T03:00:58.582Z,25.20
2017-07-25T03:03:26.390Z,25.30
2017-07-25T03:05:53.477Z,25.30
2017-07-25T03:08:20.500Z,25.20
2017-07-25T03:10:47.520Z,25.10
2017-07-25T03:13:14.585Z,25.10
2017-07-25T03:15:41.611Z,25.20
2017-07-25T03:18:08.644Z,24.40
2017-07-25T03:20:36.459Z,25.10
2017-07-25T03:23:09.330Z,25.10
2017-07-25T03:25:36.569Z,25.10
2017-07-25T03:28:03.600Z,25.00
2017-07-25T03:30:31.411Z,25.20
2017-07-25T03:32:58.472Z,25.20
2017-07-25T03:37:58.081Z,24.60
2017-07-25T03:40:25.137Z,24.90
2017-07-25T03:42:52.174Z,25.10
2017-07-25T03:45:19.214Z,25.10
2017-07-25T03:47:46.253Z,25.20
2017-07-25T03:50:13.312Z,25.20
2017-07-25T03:52:40.349Z,25.20
2017-07-25T03:55:07.405Z,25.20
2017-07-25T03:57:34.436Z,25.10
2017-07-25T04:00:01.490Z,24.80
2017-07-25T04:02:28.549Z,24.30
2017-07-25T04:04:55.581Z,23.50
2017-07-25T04:07:22.630Z,23.40
2017-07-25T04:09:49.693Z,23.20
2017-07-25T04:12:16.733Z,23.10
2017-07-25T04:14:43.752Z,24.00
2017-07-25T04:17:10.808Z,24.10
2017-07-25T04:19:38.610Z,24.80
2017-07-25T04:22:05.645Z,24.70
2017-07-25T04:24:32.695Z,24.90
2017-07-25T04:26:59.725Z,24.90
2017-07-25T04:29:27.518Z,24.80
2017-07-25T04:31:54.570Z,24.70
2017-07-25T04:34:21.718Z,24.80
2017-07-25T04:36:48.742Z,24.60
2017-07-25T04:39:16.582Z,24.20
2017-07-25T04:41:43.622Z,24.20
2017-07-25T04:44:10.662Z,24.70
2017-07-25T04:46:37.704Z,24.80
2017-07-25T04:49:04.759Z,24.10
2017-07-25T04:51:31.810Z,24.60
2017-07-25T04:53:58.857Z,24.70
2017-07-25T04:56:25.893Z,24.80
2017-07-25T04:58:52.940Z,24.70
2017-07-25T05:01:20.056Z,24.90
2017-07-25T05:03:47.085Z,24.00
2017-07-25T05:06:14.886Z,24.50
2017-07-25T05:08:41.947Z,24.40
2017-07-25T05:11:08.984Z,24.80
2017-07-25T05:13:36.016Z,24.80
2017-07-25T05:16:03.085Z,24.90
2017-07-25T05:18:35.959Z,24.30
2017-07-25T05:21:02.999Z,24.60
2017-07-25T05:23:30.492Z,24.70
2017-07-25T05:25:57.521Z,24.90
2017-07-25T05:28:24.581Z,25.00
2017-07-25T05:30:51.629Z,25.00
2017-07-25T05:33:18.662Z,25.00
2017-07-25T05:35:45.711Z,25.00
2017-07-25T05:38:12.749Z,24.10
2017-07-25T05:40:39.794Z,24.00
2017-07-25T05:43:07.633Z,24.00
2017-07-25T05:45:34.670Z,24.00
2017-07-25T05:48:01.704Z,24.30
2017-07-25T05:50:28.767Z,24.60
2017-07-25T05:52:55.788Z,24.70
2017-07-25T05:55:22.827Z,24.20
2017-07-25T05:57:49.961Z,24.30
2017-07-25T06:00:16.997Z,24.00
2017-07-25T06:02:44.797Z,24.20
2017-07-25T06:05:11.859Z,24.20
2017-07-25T06:07:38.900Z,24.10
2017-07-25T06:10:05.934Z,24.20
2017-07-25T06:12:32.996Z,24.20
2017-07-25T06:15:00.037Z,23.80
2017-07-25T06:17:27.085Z,24.10
2017-07-25T06:19:54.140Z,24.70
2017-07-25T06:22:21.159Z,24.10
2017-07-25T06:24:48.192Z,24.00
2017-07-25T06:27:16.013Z,23.60
2017-07-25T06:29:43.042Z,23.60
2017-07-25T06:32:10.074Z,23.80
2017-07-25T06:34:37.132Z,23.80
2017-07-25T06:37:04.170Z,24.10
2017-07-25T06:39:31.196Z,24.20
2017-07-25T06:41:59.016Z,23.30
2017-07-25T06:44:26.054Z,23.20
2017-07-25T06:46:53.079Z,23.70
2017-07-25T06:49:20.132Z,23.60
2017-07-25T06:51:47.165Z,23.40
2017-07-25T06:54:14.969Z,23.30
2017-07-25T06:56:42.016Z,23.20
2017-07-25T06:59:09.054Z,23.60
2017-07-25T07:01:36.080Z,23.70
2017-07-25T07:04:03.888Z,24.40
2017-07-25T07:06:32.556Z,24.20
2017-07-25T07:08:59.591Z,24.20
2017-07-25T07:11:26.642Z,24.10
2017-07-25T07:13:53.676Z,24.10
2017-07-25T07:16:21.566Z,24.10
2017-07-25T07:18:48.614Z,24.00
2017-07-25T07:21:15.653Z,24.20
2017-07-25T07:23:42.685Z,24.60
2017-07-25T07:26:10.492Z,24.30
2017-07-25T07:28:37.521Z,24.30
2017-07-25T07:31:04.568Z,24.40
2017-07-25T07:33:31.614Z,24.60
2017-07-25T07:35:58.645Z,24.30
2017-07-25T07:38:26.444Z,24.20
2017-07-25T07:40:53.489Z,24.10
2017-07-25T07:43:20.526Z,24.10
2017-07-25T07:45:47.565Z,24.50
2017-07-25T07:48:15.389Z,24.50
2017-07-25T07:50:42.425Z,24.50
2017-07-25T07:53:09.465Z,24.50
2017-07-25T07:55:36.518Z,24.30
2017-07-25T07:58:03.566Z,24.40
2017-07-25T08:00:30.601Z,24.50
2017-07-25T08:02:57.649Z,24.40
2017-07-25T08:05:24.690Z,24.40
2017-07-25T08:07:51.736Z,24.50
2017-07-25T08:10:18.798Z,24.70
2017-07-25T08:12:45.842Z,24.60
2017-07-25T08:15:12.870Z,24.60
2017-07-25T08:17:39.911Z,24.70
2017-07-25T08:20:07.708Z,25.00
2017-07-25T08:22:34.743Z,25.00
2017-07-25T08:25:01.789Z,24.90
2017-07-25T08:27:28.826Z,25.00
2017-07-25T08:29:56.636Z,25.10
2017-07-25T08:32:23.680Z,25.00
2017-07-25T08:34:50.717Z,25.10
2017-07-25T08:37:17.772Z,25.30
2017-07-25T08:39:44.812Z,25.40
2017-07-25T08:42:11.860Z,25.30
2017-07-25T08:44:38.889Z,25.40
2017-07-25T08:47:05.929Z,25.50
2017-07-25T08:49:33.722Z,25.30
2017-07-25T08:52:00.748Z,25.30
2017-07-25T08:54:28.562Z,25.50
2017-07-25T08:56:55.606Z,25.40
2017-07-25T08:59:22.655Z,25.60
2017-07-25T09:01:49.713Z,25.60
2017-07-25T09:04:16.745Z,25.60
2017-07-25T09:06:43.785Z,25.50
2017-07-25T09:09:10.835Z,25.40
2017-07-25T09:11:37.882Z,25.20
2017-07-25T09:14:04.913Z,25.30
2017-07-25T09:16:31.971Z,25.30
2017-07-25T09:18:58.992Z,25.40
2017-07-25T09:21:26.892Z,25.70
2017-07-25T09:23:53.934Z,25.60
2017-07-25T09:26:20.965Z,25.70
2017-07-25T09:28:47.997Z,25.60
2017-07-25T09:31:15.817Z,25.80
2017-07-25T09:33:42.854Z,25.80
2017-07-25T09:36:09.889Z,25.90
2017-07-25T09:38:36.928Z,25.80
2017-07-25T09:41:03.971Z,25.90
2017-07-25T09:43:31.761Z,27.10
2017-07-25T09:45:58.799Z,27.00
2017-07-25T09:48:25.838Z,27.40
2017-07-25T09:50:52.869Z,27.70
2017-07-25T09:53:20.676Z,27.90
2017-07-25T09:55:47.723Z,27.90
2017-07-25T09:58:14.767Z,28.00
2017-07-25T10:00:41.809Z,27.80
2017-07-25T10:03:08.849Z,28.10
2017-07-25T10:05:36.654Z,28.70
2017-07-25T10:08:03.700Z,28.60
2017-07-25T10:10:30.733Z,28.30
2017-07-25T10:12:57.768Z,28.30
2017-07-25T10:15:24.824Z,28.30
2017-07-25T10:17:51.852Z,28.50
2017-07-25T10:20:19.649Z,28.50
2017-07-25T10:22:46.700Z,28.50
2017-07-25T10:25:13.842Z,28.60
2017-07-25T10:27:40.880Z,28.60
2017-07-25T10:30:07.917Z,28.80
2017-07-25T10:32:34.948Z,28.90
2017-07-25T10:35:02.758Z,28.70
2017-07-25T10:37:29.809Z,28.70
2017-07-25T10:39:56.862Z,28.60
2017-07-25T10:42:23.888Z,28.70
2017-07-25T10:44:50.931Z,28.80
2017-07-25T10:47:17.969Z,28.80
2017-07-25T10:49:45.781Z,28.70
2017-07-25T10:52:12.824Z,28.70
2017-07-25T10:54:39.861Z,28.80
2017-07-25T10:57:06.903Z,28.60
2017-07-25T10:59:33.952Z,28.60
2017-07-25T11:02:00.981Z,28.60
2017-07-25T11:04:28.007Z,28.40
2017-07-25T11:06:55.055Z,28.50
2017-07-25T11:09:22.108Z,28.70
2017-07-25T11:11:49.910Z,28.90
2017-07-25T11:14:17.170Z,28.90
2017-07-25T11:16:44.204Z,28.90
2017-07-25T11:19:11.267Z,28.70
2017-07-25T11:21:38.313Z,28.60
2017-07-25T11:24:05.341Z,28.50
2017-07-25T11:26:32.373Z,28.60
2017-07-25T11:29:00.193Z,28.70
2017-07-25T11:31:27.228Z,28.70
2017-07-25T11:33:54.270Z,28.90
2017-07-25T11:36:21.319Z,29.00
2017-07-25T11:38:48.358Z,28.90
2017-07-25T11:41:15.397Z,28.50
2017-07-25T11:43:43.207Z,28.50
2017-07-25T11:46:10.249Z,28.40
2017-07-25T11:48:37.278Z,28.40
2017-07-25T11:51:04.330Z,28.40
2017-07-25T11:53:31.360Z,28.30
2017-07-25T11:55:58.394Z,28.40
2017-07-25T11:58:26.217Z,28.20
2017-07-25T12:00:53.241Z,28.10
2017-07-25T12:03:20.268Z,28.10
2017-07-25T12:05:48.118Z,28.10
2017-07-25T12:08:15.923Z,28.00
2017-07-25T12:10:42.960Z,28.00
2017-07-25T12:13:10.023Z,28.00
2017-07-25T12:15:37.079Z,27.90
2017-07-25T12:18:04.108Z,28.00
2017-07-25T12:20:31.147Z,28.30
2017-07-25T12:22:58.178Z,28.40
2017-07-25T12:25:25.977Z,28.20
2017-07-25T12:27:53.016Z,28.20
2017-07-25T12:30:20.044Z,28.20
2017-07-25T12:32:47.840Z,28.00
2017-07-25T12:35:14.890Z,28.00
2017-07-25T12:37:41.917Z,28.10
2017-07-25T12:40:09.723Z,28.20
2017-07-25T12:42:36.773Z,28.20
2017-07-25T12:45:03.795Z,28.30
2017-07-25T12:47:30.853Z,28.30
2017-07-25T12:49:57.892Z,28.40
2017-07-25T12:52:24.924Z,28.50
2017-07-25T12:54:52.712Z,28.40
2017-07-25T12:57:19.748Z,28.30
2017-07-25T12:59:46.781Z,28.30
2017-07-25T13:02:20.410Z,28.30
2017-07-25T13:04:47.515Z,28.30
2017-07-25T13:07:14.539Z,28.30
2017-07-25T13:09:41.576Z,28.30
2017-07-25T13:12:08.613Z,28.50
2017-07-25T13:14:35.636Z,28.60
2017-07-25T13:17:02.685Z,28.80
2017-07-25T13:19:30.528Z,28.70
2017-07-25T13:21:57.555Z,28.70
2017-07-25T13:24:24.610Z,28.70
2017-07-25T13:26:51.648Z,28.80
2017-07-25T13:29:18.675Z,28.90
2017-07-25T13:31:45.818Z,28.70
2017-07-25T13:34:12.843Z,28.60
2017-07-25T13:36:40.631Z,28.60
2017-07-25T13:39:07.678Z,28.60
2017-07-25T13:41:34.714Z,28.60
2017-07-25T13:44:01.748Z,28.50
2017-07-25T13:46:29.559Z,28.70
2017-07-25T13:48:56.605Z,28.70
2017-07-25T13:51:23.635Z,28.60
2017-07-25T13:53:50.667Z,28.60
2017-07-25T13:56:17.709Z,28.50
2017-07-25T13:58:45.508Z,28.60
2017-07-25T14:01:12.552Z,28.60
2017-07-25T14:03:39.599Z,28.90
2017-07-25T14:06:06.636Z,29.00
2017-07-25T14:08:33.684Z,28.80
2017-07-25T14:11:00.725Z,28.80
2017-07-25T14:13:27.756Z,28.70
2017-07-25T14:15:55.577Z,28.80
2017-07-25T14:18:22.612Z,28.70
2017-07-25T14:20:49.648Z,28.70
2017-07-25T14:23:16.693Z,28.70
2017-07-25T14:25:43.729Z,28.80
2017-07-25T14:28:11.536Z,29.00
2017-07-25T14:30:38.577Z,29.00
2017-07-25T14:33:05.616Z,29.00
2017-07-25T14:35:32.636Z,28.80
2017-07-25T14:38:00.444Z,28.80
2017-07-25T14:40:27.486Z,28.80
2017-07-25T14:42:54.527Z,28.80
2017-07-25T14:45:21.581Z,28.70
2017-07-25T14:47:48.616Z,28.90
2017-07-25T14:50:15.642Z,28.90
2017-07-25T14:52:43.448Z,28.90
2017-07-25T14:55:10.477Z,28.90
2017-07-25T14:57:37.499Z,28.90
2017-07-25T15:00:05.304Z,28.80
2017-07-25T15:02:32.341Z,28.80
2017-07-25T15:04:59.369Z,28.80
2017-07-25T15:07:27.181Z,29.10
2017-07-25T15:09:54.218Z,29.10
2017-07-25T15:12:21.253Z,29.10
2017-07-25T15:14:48.288Z,29.50
2017-07-25T15:17:15.316Z,29.40
2017-07-25T15:19:42.353Z,29.30
2017-07-25T15:22:09.402Z,29.20
2017-07-25T15:24:36.436Z,29.20
2017-07-25T15:27:03.469Z,29.30
2017-07-25T15:29:30.517Z,29.20
2017-07-25T15:31:57.546Z,29.20
2017-07-25T15:34:24.565Z,29.00
2017-07-25T15:36:52.381Z,29.10
2017-07-25T15:39:19.514Z,29.10
2017-07-25T15:41:46.545Z,29.10
2017-07-25T15:44:13.594Z,29.40
2017-07-25T15:46:40.615Z,29.30
2017-07-25T15:49:08.419Z,29.40
2017-07-25T15:51:35.456Z,29.30
2017-07-25T15:54:02.489Z,29.30
2017-07-25T15:56:30.293Z,29.10
2017-07-25T15:58:57.333Z,29.00
2017-07-25T16:01:24.379Z,29.10
2017-07-25T16:03:51.433Z,29.10
2017-07-25T16:06:18.480Z,29.20
2017-07-25T16:08:45.520Z,29.20
2017-07-25T16:11:12.542Z,29.20
2017-07-25T16:13:40.361Z,29.00
2017-07-25T16:16:07.401Z,29.00
2017-07-25T16:18:34.427Z,29.20
2017-07-25T16:21:01.467Z,29.20
2017-07-25T16:23:29.264Z,28.90
2017-07-25T16:25:56.308Z,28.90
2017-07-25T16:28:23.365Z,29.10
2017-07-25T16:30:50.387Z,29.10
2017-07-25T16:33:17.421Z,29.10
2017-07-25T16:35:45.251Z,29.10
2017-07-25T16:38:12.292Z,29.00
2017-07-25T16:40:39.325Z,29.00
2017-07-25T16:43:06.369Z,29.00
2017-07-25T16:45:33.512Z,29.00
2017-07-25T16:48:00.546Z,29.10
2017-07-25T16:50:27.588Z,29.00
2017-07-25T16:52:54.618Z,29.10
2017-07-25T16:55:22.426Z,29.10
2017-07-25T16:57:49.473Z,29.10
2017-07-25T17:00:16.505Z,29.00
2017-07-25T17:02:43.523Z,29.10
2017-07-25T17:05:10.618Z,29.00
2017-07-25T17:07:37.658Z,29.00
2017-07-25T17:10:04.692Z,28.80
2017-07-25T17:12:31.918Z,28.90
2017-07-25T17:14:58.975Z,28.70
2017-07-25T17:17:26.785Z,28.70
2017-07-25T17:19:53.836Z,28.60
2017-07-25T17:22:20.857Z,28.90
2017-07-25T17:24:47.899Z,28.90
2017-07-25T17:27:15.867Z,28.80
2017-07-25T17:29:43.665Z,28.70
2017-07-25T17:32:10.711Z,28.70
2017-07-25T17:34:37.752Z,28.70
2017-07-25T17:37:04.777Z,28.80
2017-07-25T17:39:32.569Z,28.90
2017-07-25T17:41:59.633Z,28.90
2017-07-25T17:44:26.655Z,28.80
2017-07-25T17:46:53.681Z,28.70
2017-07-25T17:49:21.505Z,28.60
2017-07-25T17:51:48.537Z,28.50
2017-07-25T17:54:15.568Z,28.50
2017-07-25T17:56:42.612Z,28.80
2017-07-25T17:59:09.650Z,28.70
2017-07-25T18:01:37.481Z,28.60
2017-07-25T18:04:04.536Z,28.50
2017-07-25T18:06:31.569Z,28.60
2017-07-25T18:08:58.621Z,28.60
2017-07-25T18:11:25.677Z,28.70
2017-07-25T18:13:52.707Z,28.60
2017-07-25T18:16:19.728Z,28.60
2017-07-25T18:18:46.791Z,28.60
2017-07-25T18:21:13.812Z,28.50
2017-07-25T18:23:40.853Z,28.40
2017-07-25T18:26:08.668Z,28.30
2017-07-25T18:28:35.707Z,28.30
2017-07-25T18:31:02.735Z,28.20
2017-07-25T18:33:29.805Z,28.00
2017-07-25T18:35:56.827Z,27.80
2017-07-25T18:38:23.860Z,27.40
2017-07-25T18:40:51.680Z,26.90
2017-07-25T18:43:18.719Z,26.90
2017-07-25T18:45:45.760Z,26.70
2017-07-25T18:48:12.860Z,26.70
2017-07-25T18:50:39.892Z,26.80
2017-07-25T18:53:06.936Z,26.90
2017-07-25T18:55:33.988Z,26.60
2017-07-25T18:58:01.017Z,26.50
2017-07-25T19:00:28.046Z,26.50
2017-07-25T19:02:55.252Z,26.60
2017-07-25T19:05:22.291Z,26.50
2017-07-25T19:07:49.398Z,26.40
2017-07-25T19:10:16.436Z,26.40
2017-07-25T19:12:43.470Z,26.50
2017-07-25T19:15:11.274Z,26.40
2017-07-25T19:17:38.319Z,26.40
2017-07-25T19:20:05.351Z,26.40
2017-07-25T19:22:32.381Z,26.20
2017-07-25T19:24:59.425Z,26.10
2017-07-25T19:27:27.229Z,26.20
2017-07-25T19:29:54.257Z,26.20
2017-07-25T19:32:21.316Z,26.20
2017-07-25T19:34:48.343Z,26.20
2017-07-25T19:37:15.386Z,26.20
2017-07-25T19:39:43.199Z,26.00
2017-07-25T19:42:10.227Z,26.00
2017-07-25T19:44:37.259Z,25.70
2017-07-25T19:47:04.313Z,25.70
2017-07-25T19:49:31.353Z,25.90
2017-07-25T19:51:58.381Z,26.00
2017-07-25T19:54:26.193Z,26.10
2017-07-25T19:56:53.235Z,26.00
2017-07-25T19:59:20.265Z,26.00
2017-07-25T20:01:47.541Z,26.00
2017-07-25T20:04:14.567Z,25.90
2017-07-25T20:06:41.592Z,26.00
2017-07-25T20:09:09.399Z,26.00
2017-07-25T20:11:36.437Z,26.00
2017-07-25T20:14:03.474Z,26.00
2017-07-25T20:16:30.540Z,26.00
2017-07-25T20:18:57.590Z,26.00
2017-07-25T20:21:24.633Z,26.10
2017-07-25T20:23:51.667Z,26.10
2017-07-25T20:26:19.457Z,26.20
2017-07-25T20:28:46.479Z,26.10
2017-07-25T20:31:14.292Z,26.00
2017-07-25T20:33:41.326Z,26.00
2017-07-25T20:36:08.365Z,25.80
2017-07-25T20:38:35.409Z,25.80
2017-07-25T20:41:02.453Z,25.70
2017-07-25T20:43:29.489Z,25.70
2017-07-25T20:45:57.302Z,25.80
2017-07-25T20:48:24.431Z,25.80
2017-07-25T20:50:51.467Z,25.90
2017-07-25T20:53:18.502Z,26.00
2017-07-25T20:55:45.565Z,25.90
2017-07-25T20:58:12.592Z,25.90
2017-07-25T21:00:40.396Z,26.00
2017-07-25T21:03:07.420Z,25.90
2017-07-25T21:08:05.642Z,25.90
2017-07-25T21:10:32.678Z,25.90
2017-07-25T21:19:07.112Z,26.40
2017-07-25T21:21:34.914Z,26.20
2017-07-25T21:28:19.741Z,26.50
2017-07-25T21:33:54.075Z,26.50
2017-07-25T21:37:42.880Z,26.30
2017-07-25T21:40:11.144Z,26.10
2017-07-25T21:42:39.398Z,26.80
2017-07-25T21:45:06.915Z,26.70
2017-07-25T21:47:34.415Z,26.80
2017-07-25T21:50:01.911Z,26.90
2017-07-25T21:53:21.242Z,26.80
2017-07-25T21:55:48.735Z,26.50
2017-07-25T21:58:16.211Z,26.20
2017-07-25T22:00:43.720Z,26.10
2017-07-25T22:03:23.064Z,25.80
2017-07-25T22:05:50.553Z,26.20
2017-07-25T22:08:18.040Z,26.30
2017-07-25T22:10:45.522Z,26.20
2017-07-25T22:13:13.021Z,25.80
2017-07-25T22:15:40.505Z,26.00
2017-07-25T22:18:07.990Z,26.10
2017-07-25T22:20:35.482Z,26.00
2017-07-25T22:23:02.975Z,26.00
2017-07-25T22:25:30.467Z,26.00
2017-07-25T22:27:57.978Z,25.80
2017-07-25T22:30:25.476Z,26.10
2017-07-25T22:32:52.974Z,26.20
2017-07-25T22:35:20.464Z,26.20
2017-07-25T22:37:48.787Z,25.70
2017-07-25T22:40:16.270Z,25.70
2017-07-25T22:42:43.765Z,25.90
2017-07-25T22:45:11.256Z,26.10
2017-07-25T22:47:38.754Z,26.00
2017-07-25T22:50:06.248Z,26.00
2017-07-25T22:52:34.502Z,25.50
2017-07-25T22:55:01.992Z,25.40
2017-07-25T22:57:29.501Z,25.00
2017-07-25T22:59:57.066Z,25.10
2017-07-25T23:02:24.541Z,25.70
2017-07-25T23:04:52.029Z,25.30
2017-07-25T23:07:19.541Z,25.10
2017-07-25T23:09:47.027Z,25.10
2017-07-25T23:12:15.297Z,24.90
2017-07-25T23:14:43.559Z,25.50
2017-07-25T23:17:11.044Z,25.50
2017-07-25T23:19:39.319Z,25.10
2017-07-25T23:22:07.593Z,25.50
2017-07-25T23:24:36.790Z,25.40
2017-07-25T23:27:06.368Z,25.60
2017-07-25T23:29:34.874Z,25.50
2017-07-25T23:32:04.128Z,25.50
2017-07-25T23:34:34.009Z,24.90
2017-07-25T23:37:01.813Z,24.70
2017-07-25T23:39:30.130Z,24.40
2017-07-25T23:41:59.985Z,24.30
2017-07-25T23:44:27.869Z,24.20
2017-07-25T23:46:55.580Z,24.30
2017-07-25T23:49:23.402Z,24.40
2017-07-25T23:51:51.734Z,24.30
2017-07-25T23:54:19.744Z,24.50
2017-07-25T23:56:47.774Z,23.90
2017-07-25T23:59:15.701Z,23.60
